createdAt,value
2023-05-09T00:00:46.106Z,2.30
2023-05-09T00:03:12.776Z,2.20
2023-05-09T00:05:39.367Z,2.00
2023-05-09T00:08:06.053Z,2.20
2023-05-09T00:10:32.663Z,2.23
2023-05-09T00:12:59.817Z,2.27
2023-05-09T00:15:26.783Z,2.13
2023-05-09T00:17:54.555Z,2.10
2023-05-09T00:20:22.119Z,2.10
2023-05-09T00:22:48.694Z,2.33
2023-05-09T00:25:15.380Z,2.00
2023-05-09T00:27:42.049Z,2.07
2023-05-09T00:30:09.032Z,2.07
2023-05-09T00:32:36.873Z,2.27
2023-05-09T00:35:03.841Z,2.13
2023-05-09T00:37:31.242Z,2.00
2023-05-09T00:39:57.835Z,2.53
2023-05-09T00:42:24.623Z,2.30
2023-05-09T00:44:51.092Z,2.00
2023-05-09T00:47:17.701Z,2.40
2023-05-09T00:49:44.225Z,2.27
2023-05-09T00:52:10.892Z,2.37
2023-05-09T00:54:38.016Z,1.97
2023-05-09T00:57:04.622Z,2.40
2023-05-09T00:59:31.199Z,2.43
2023-05-09T01:01:57.840Z,2.40
2023-05-09T01:04:24.605Z,2.40
2023-05-09T01:07:00.899Z,2.23
2023-05-09T01:09:42.939Z,2.40
2023-05-09T01:12:31.458Z,2.63
2023-05-09T01:15:10.740Z,2.60
2023-05-09T01:17:54.199Z,2.40
2023-05-09T01:20:29.199Z,2.50
2023-05-09T01:23:06.589Z,2.73
2023-05-09T01:26:03.146Z,2.37
2023-05-09T01:29:07.461Z,2.73
2023-05-09T01:31:35.830Z,2.50
2023-05-09T01:34:03.932Z,2.30
2023-05-09T01:36:33.113Z,2.53
2023-05-09T01:39:02.131Z,2.50
2023-05-09T01:41:30.852Z,2.53
2023-05-09T01:43:59.520Z,2.77
2023-05-09T01:46:27.307Z,2.57
2023-05-09T01:48:54.414Z,2.70
2023-05-09T01:51:21.475Z,2.73
2023-05-09T01:53:48.784Z,2.20
2023-05-09T01:56:16.583Z,2.27
2023-05-09T01:58:44.022Z,2.43
2023-05-09T02:01:11.966Z,2.30
2023-05-09T02:03:39.196Z,2.67
2023-05-09T02:06:06.244Z,2.47
2023-05-09T02:08:33.428Z,2.53
2023-05-09T02:11:00.318Z,2.40
2023-05-09T02:13:27.023Z,2.13
2023-05-09T02:15:55.368Z,2.30
2023-05-09T02:18:21.949Z,2.30
2023-05-09T02:20:48.749Z,2.67
2023-05-09T02:23:15.594Z,2.47
2023-05-09T02:25:42.261Z,2.60
2023-05-09T02:28:10.031Z,2.50
2023-05-09T02:30:43.250Z,2.20
2023-05-09T02:33:11.968Z,2.87
2023-05-09T02:35:42.348Z,2.30
2023-05-09T02:38:08.888Z,2.43
2023-05-09T02:40:35.494Z,2.30
2023-05-09T02:43:02.257Z,2.47
2023-05-09T02:45:28.821Z,2.80
2023-05-09T02:47:55.394Z,2.60
2023-05-09T02:50:21.987Z,2.37
2023-05-09T02:52:48.555Z,2.20
2023-05-09T02:55:15.217Z,2.37
2023-05-09T02:57:42.580Z,2.50
2023-05-09T03:00:09.749Z,2.50
2023-05-09T03:02:37.288Z,2.53
2023-05-09T03:05:04.424Z,2.37
2023-05-09T03:07:30.997Z,2.23
2023-05-09T03:09:57.391Z,2.20
2023-05-09T03:12:23.976Z,2.42
2023-05-09T03:14:50.515Z,2.67
2023-05-09T03:17:21.477Z,2.60
2023-05-09T03:19:48.983Z,2.50
2023-05-09T03:22:15.787Z,2.40
2023-05-09T03:24:42.287Z,2.57
2023-05-09T03:27:08.747Z,2.40
2023-05-09T03:29:35.241Z,2.10
2023-05-09T03:32:01.760Z,2.60
2023-05-09T03:34:28.328Z,2.83
2023-05-09T03:36:54.733Z,2.53
2023-05-09T03:39:21.581Z,2.10
2023-05-09T03:41:48.780Z,2.57
2023-05-09T03:44:15.215Z,2.33
2023-05-09T03:46:41.623Z,2.30
2023-05-09T03:49:08.054Z,2.30
2023-05-09T03:51:34.624Z,2.30
2023-05-09T03:54:01.121Z,2.07
2023-05-09T03:56:27.678Z,2.43
2023-05-09T03:58:54.154Z,2.13
2023-05-09T04:01:20.732Z,2.27
2023-05-09T04:03:47.313Z,2.50
2023-05-09T04:06:13.895Z,2.40
2023-05-09T04:08:40.463Z,2.30
2023-05-09T04:11:07.317Z,2.10
2023-05-09T04:13:33.951Z,2.17
2023-05-09T04:16:01.704Z,2.30
2023-05-09T04:18:28.340Z,2.13
2023-05-09T04:20:54.763Z,2.20
2023-05-09T04:23:21.211Z,1.80
2023-05-09T04:25:47.766Z,2.17
2023-05-09T04:28:14.332Z,2.17
2023-05-09T04:30:40.768Z,1.83
2023-05-09T04:33:07.199Z,1.80
2023-05-09T04:35:33.785Z,1.87
2023-05-09T04:38:00.671Z,1.87
2023-05-09T04:40:27.255Z,2.03
2023-05-09T04:42:53.746Z,1.70
2023-05-09T04:45:20.229Z,2.00
2023-05-09T04:47:47.856Z,2.27
2023-05-09T04:50:14.441Z,2.00
2023-05-09T04:52:41.059Z,2.20
2023-05-09T04:55:08.129Z,1.97
2023-05-09T04:57:34.627Z,2.10
2023-05-09T05:00:01.199Z,2.40
2023-05-09T05:02:28.479Z,2.20
2023-05-09T05:05:06.171Z,2.77
2023-05-09T05:07:37.874Z,2.00
2023-05-09T05:10:06.400Z,2.00
2023-05-09T05:12:33.849Z,1.90
2023-05-09T05:15:00.682Z,2.33
2023-05-09T05:17:29.383Z,2.23
2023-05-09T05:19:56.193Z,1.70
2023-05-09T05:22:23.107Z,2.00
2023-05-09T05:24:49.781Z,1.83
2023-05-09T05:27:16.268Z,1.90
2023-05-09T05:29:42.648Z,2.10
2023-05-09T05:32:09.308Z,2.20
2023-05-09T05:34:35.786Z,2.13
2023-05-09T05:37:02.452Z,2.25
2023-05-09T05:39:28.817Z,2.17
2023-05-09T05:41:55.736Z,2.22
2023-05-09T05:44:22.273Z,1.75
2023-05-09T05:46:48.667Z,2.22
2023-05-09T05:49:15.203Z,2.10
2023-05-09T05:51:41.698Z,1.88
2023-05-09T05:54:08.335Z,1.90
2023-05-09T05:56:34.849Z,2.25
2023-05-09T05:59:01.279Z,2.10
2023-05-09T06:01:27.789Z,2.00
2023-05-09T06:03:57.313Z,1.85
2023-05-09T06:06:24.159Z,1.83
2023-05-09T06:08:50.540Z,1.80
2023-05-09T06:11:17.201Z,2.00
2023-05-09T06:13:43.850Z,1.92
2023-05-09T06:16:19.665Z,2.22
2023-05-09T06:18:47.624Z,2.10
2023-05-09T06:21:14.059Z,2.10
2023-05-09T06:23:47.228Z,1.88
2023-05-09T06:26:17.282Z,1.90
2023-05-09T06:28:43.663Z,2.00
2023-05-09T06:31:10.214Z,2.35
2023-05-09T06:33:36.698Z,2.03
2023-05-09T06:36:03.334Z,2.17
2023-05-09T06:38:29.774Z,1.90
2023-05-09T06:40:56.143Z,2.20
2023-05-09T06:43:22.618Z,2.05
2023-05-09T06:45:49.132Z,1.98
2023-05-09T06:48:15.591Z,1.85
2023-05-09T06:50:42.036Z,2.00
2023-05-09T06:53:08.544Z,2.05
2023-05-09T06:55:35.032Z,2.40
2023-05-09T06:58:01.602Z,2.25
2023-05-09T07:00:28.873Z,2.08
2023-05-09T07:02:55.786Z,2.17
2023-05-09T07:05:22.234Z,2.30
2023-05-09T07:07:48.978Z,2.00
2023-05-09T07:10:16.589Z,1.70
2023-05-09T07:12:43.145Z,2.30
2023-05-09T07:15:10.160Z,2.05
2023-05-09T07:17:36.704Z,2.00
2023-05-09T07:20:04.797Z,2.25
2023-05-09T07:22:32.665Z,2.42
2023-05-09T07:25:00.052Z,2.03
2023-05-09T07:27:27.471Z,1.98
2023-05-09T07:29:53.920Z,1.77
2023-05-09T07:32:20.845Z,1.92
2023-05-09T07:34:47.681Z,2.20
2023-05-09T07:37:15.421Z,2.17
2023-05-09T07:39:43.044Z,1.98
2023-05-09T07:42:09.675Z,1.98
2023-05-09T07:44:36.414Z,1.95
2023-05-09T07:47:02.834Z,2.00
2023-05-09T07:49:29.288Z,2.30
2023-05-09T07:51:55.902Z,1.83
2023-05-09T07:54:22.447Z,2.05
2023-05-09T07:56:48.943Z,2.45
2023-05-09T07:59:15.464Z,2.03
2023-05-09T08:01:41.858Z,2.17
2023-05-09T08:04:09.670Z,1.98
2023-05-09T08:06:36.699Z,1.85
2023-05-09T08:09:03.490Z,2.15
2023-05-09T08:11:30.619Z,2.00
2023-05-09T08:13:57.048Z,2.08
2023-05-09T08:16:23.551Z,1.98
2023-05-09T08:18:49.945Z,2.22
2023-05-09T08:21:16.377Z,1.80
2023-05-09T08:23:42.918Z,2.22
2023-05-09T08:26:09.527Z,1.98
2023-05-09T08:28:35.943Z,1.77
2023-05-09T08:31:02.437Z,1.90
2023-05-09T08:33:28.962Z,2.10
2023-05-09T08:35:56.334Z,1.98
2023-05-09T08:38:24.209Z,1.70
2023-05-09T08:40:50.669Z,1.90
2023-05-09T08:43:20.034Z,2.42
2023-05-09T08:45:51.568Z,1.70
2023-05-09T08:48:18.640Z,1.80
2023-05-09T08:50:45.394Z,1.60
2023-05-09T08:53:13.607Z,1.80
2023-05-09T08:55:41.124Z,1.77
2023-05-09T08:58:09.032Z,1.90
2023-05-09T09:00:37.319Z,2.00
2023-05-09T09:03:04.160Z,2.05
2023-05-09T09:05:41.308Z,1.95
2023-05-09T09:08:09.751Z,1.77
2023-05-09T09:10:40.044Z,2.00
2023-05-09T09:13:07.071Z,1.60
2023-05-09T09:15:36.032Z,1.55
2023-05-09T09:18:09.806Z,1.80
2023-05-09T09:20:41.557Z,1.92
2023-05-09T09:23:10.613Z,2.22
2023-05-09T09:25:37.601Z,1.80
2023-05-09T09:28:04.842Z,2.00
2023-05-09T09:30:31.274Z,1.70
2023-05-09T09:33:00.771Z,1.75
2023-05-09T09:35:27.504Z,1.75
2023-05-09T09:37:59.910Z,1.95
2023-05-09T09:40:26.808Z,1.58
2023-05-09T09:42:53.203Z,1.83
2023-05-09T09:45:20.458Z,1.83
2023-05-09T09:47:48.586Z,1.95
2023-05-09T09:50:17.819Z,2.13
2023-05-09T09:52:56.027Z,1.80
2023-05-09T09:55:24.221Z,1.90
2023-05-09T09:57:51.593Z,1.88
2023-05-09T10:00:19.887Z,1.65
2023-05-09T10:02:50.729Z,1.80
2023-05-09T10:05:30.461Z,1.60
2023-05-09T10:08:01.546Z,1.63
2023-05-09T10:10:33.116Z,1.92
2023-05-09T10:13:02.002Z,1.67
2023-05-09T10:15:33.496Z,1.80
2023-05-09T10:18:08.184Z,1.60
2023-05-09T10:20:35.464Z,1.70
2023-05-09T10:23:03.453Z,1.95
2023-05-09T10:25:39.794Z,2.05
2023-05-09T10:28:12.748Z,1.63
2023-05-09T10:30:47.893Z,1.50
2023-05-09T10:33:16.243Z,1.90
2023-05-09T10:35:47.090Z,1.80
2023-05-09T10:38:13.963Z,1.70
2023-05-09T10:40:40.760Z,1.70
2023-05-09T10:43:07.312Z,1.70
2023-05-09T10:45:34.446Z,1.95
2023-05-09T10:48:01.786Z,1.88
2023-05-09T10:50:28.522Z,1.75
2023-05-09T10:53:06.999Z,1.75
2023-05-09T10:55:38.621Z,1.70
2023-05-09T10:58:36.240Z,1.77
2023-05-09T11:01:03.929Z,1.65
2023-05-09T11:03:53.424Z,1.80
2023-05-09T11:06:45.504Z,1.63
2023-05-09T11:09:39.102Z,1.50
2023-05-09T11:12:05.783Z,1.60
2023-05-09T11:14:44.561Z,1.52
2023-05-09T11:17:28.564Z,1.52
2023-05-09T11:19:59.287Z,1.77
2023-05-09T11:22:32.310Z,1.58
2023-05-09T11:25:07.481Z,1.52
2023-05-09T11:27:39.201Z,1.60
2023-05-09T11:30:07.676Z,1.58
2023-05-09T11:32:44.764Z,1.65
2023-05-09T11:35:19.528Z,1.40
2023-05-09T11:37:55.009Z,1.50
2023-05-09T11:40:22.638Z,1.45
2023-05-09T11:42:50.941Z,1.30
2023-05-09T11:45:17.783Z,2.17
2023-05-09T11:47:45.871Z,1.70
2023-05-09T11:50:13.726Z,1.67
2023-05-09T11:52:40.845Z,1.50
2023-05-09T11:55:13.005Z,1.63
2023-05-09T11:57:41.534Z,1.50
2023-05-09T12:00:10.423Z,1.40
2023-05-09T12:02:37.761Z,1.50
2023-05-09T12:05:12.374Z,1.50
2023-05-09T12:07:42.200Z,1.48
2023-05-09T12:10:10.531Z,1.60
2023-05-09T12:12:42.421Z,1.48
2023-05-09T12:15:10.399Z,1.70
2023-05-09T12:17:37.232Z,1.50
2023-05-09T12:20:07.044Z,1.40
2023-05-09T12:22:34.051Z,1.63
2023-05-09T12:25:05.626Z,1.50
2023-05-09T12:27:33.114Z,1.70
2023-05-09T12:30:03.780Z,1.50
2023-05-09T12:32:32.840Z,1.50
2023-05-09T12:35:03.353Z,1.40
2023-05-09T12:37:32.623Z,1.30
2023-05-09T12:40:09.414Z,1.40
2023-05-09T12:42:36.529Z,1.42
2023-05-09T12:45:03.741Z,1.60
2023-05-09T12:47:31.339Z,1.45
2023-05-09T12:50:05.433Z,1.30
2023-05-09T12:52:58.587Z,1.50
2023-05-09T12:55:28.826Z,1.50
2023-05-09T12:58:02.375Z,1.90
2023-05-09T13:00:29.403Z,1.65
2023-05-09T13:02:55.945Z,1.55
2023-05-09T13:05:23.148Z,1.50
2023-05-09T13:07:52.191Z,1.30
2023-05-09T13:10:23.796Z,2.13
2023-05-09T13:12:51.276Z,1.58
2023-05-09T13:15:20.265Z,1.83
2023-05-09T13:17:51.095Z,1.60
2023-05-09T13:20:18.991Z,1.80
2023-05-09T13:22:46.380Z,1.60
2023-05-09T13:25:13.055Z,1.60
2023-05-09T13:27:39.815Z,1.50
2023-05-09T13:30:07.806Z,1.50
2023-05-09T13:32:36.494Z,1.58
2023-05-09T13:35:04.565Z,1.45
2023-05-09T13:37:31.037Z,1.73
2023-05-09T13:39:57.445Z,1.70
2023-05-09T13:42:23.975Z,1.45
2023-05-09T13:44:50.604Z,1.70
2023-05-09T13:47:17.009Z,1.33
2023-05-09T13:49:43.574Z,1.88
2023-05-09T13:52:10.275Z,1.70
2023-05-09T13:54:37.073Z,1.42
2023-05-09T13:57:04.352Z,1.80
2023-05-09T13:59:32.016Z,1.70
2023-05-09T14:01:59.874Z,1.75
2023-05-09T14:04:27.988Z,1.75
2023-05-09T14:06:58.232Z,1.60
2023-05-09T14:09:24.949Z,1.50
2023-05-09T14:11:52.319Z,1.80
2023-05-09T14:14:22.980Z,1.73
2023-05-09T14:16:50.078Z,1.52
2023-05-09T14:19:17.125Z,1.83
2023-05-09T14:21:44.674Z,1.55
2023-05-09T14:24:15.058Z,1.85
2023-05-09T14:26:42.550Z,1.77
2023-05-09T14:29:09.232Z,1.85
2023-05-09T14:31:35.958Z,2.08
2023-05-09T14:34:02.498Z,1.60
2023-05-09T14:36:29.106Z,1.80
2023-05-09T14:38:55.539Z,2.22
2023-05-09T14:41:22.271Z,1.73
2023-05-09T14:43:49.088Z,1.95
2023-05-09T14:46:16.008Z,2.10
2023-05-09T14:48:42.551Z,2.20
2023-05-09T14:51:09.146Z,1.65
2023-05-09T14:53:39.720Z,1.90
2023-05-09T14:56:06.897Z,1.73
2023-05-09T14:58:36.173Z,1.90
2023-05-09T15:01:04.217Z,1.80
2023-05-09T15:03:30.759Z,2.17
2023-05-09T15:05:58.718Z,2.20
2023-05-09T15:08:25.631Z,2.03
2023-05-09T15:10:52.142Z,1.30
2023-05-09T15:13:19.011Z,2.03
2023-05-09T15:15:45.497Z,1.88
2023-05-09T15:18:13.327Z,1.90
2023-05-09T15:20:39.896Z,2.00
2023-05-09T15:23:07.834Z,1.58
2023-05-09T15:25:34.774Z,1.80
2023-05-09T15:28:01.363Z,1.60
2023-05-09T15:30:28.146Z,1.85
2023-05-09T15:32:54.601Z,1.90
2023-05-09T15:35:21.182Z,1.80
2023-05-09T15:37:48.632Z,1.85
2023-05-09T15:40:15.258Z,2.20
2023-05-09T15:42:41.970Z,2.20
2023-05-09T15:45:08.770Z,2.20
2023-05-09T15:47:35.551Z,2.25
2023-05-09T15:50:02.180Z,2.10
2023-05-09T15:52:29.196Z,2.45
2023-05-09T15:54:56.214Z,2.60
2023-05-09T15:57:23.046Z,2.00
2023-05-09T15:59:49.554Z,1.88
2023-05-09T16:02:16.081Z,2.22
2023-05-09T16:04:43.896Z,2.28
2023-05-09T16:07:12.401Z,2.58
2023-05-09T16:09:39.085Z,2.45
2023-05-09T16:12:05.744Z,2.13
2023-05-09T16:14:32.229Z,2.17
2023-05-09T16:16:58.681Z,2.10
2023-05-09T16:19:25.100Z,2.30
2023-05-09T16:21:51.550Z,2.47
2023-05-09T16:24:18.064Z,2.20
2023-05-09T16:26:44.544Z,2.28
2023-05-09T16:29:12.667Z,1.75
2023-05-09T16:31:39.245Z,2.30
2023-05-09T16:34:06.330Z,2.42
2023-05-09T16:36:33.500Z,1.90
2023-05-09T16:39:00.315Z,2.33
2023-05-09T16:41:27.058Z,2.35
2023-05-09T16:43:53.734Z,2.10
2023-05-09T16:46:20.174Z,2.25
2023-05-09T16:48:46.663Z,2.15
2023-05-09T16:51:13.136Z,2.20
2023-05-09T16:53:39.611Z,2.30
2023-05-09T16:56:07.492Z,2.00
2023-05-09T16:58:36.599Z,2.25
2023-05-09T17:01:03.705Z,2.22
2023-05-09T17:03:30.821Z,2.30
2023-05-09T17:05:57.281Z,2.05
2023-05-09T17:08:24.242Z,2.33
2023-05-09T17:10:50.998Z,2.05
2023-05-09T17:13:17.857Z,2.00
2023-05-09T17:15:44.505Z,2.17
2023-05-09T17:18:12.321Z,2.00
2023-05-09T17:20:40.549Z,2.60
2023-05-09T17:23:07.310Z,2.80
2023-05-09T17:25:33.713Z,1.90
2023-05-09T17:28:00.295Z,2.03
2023-05-09T17:30:27.000Z,2.30
2023-05-09T17:32:53.589Z,2.08
2023-05-09T17:35:20.900Z,2.20
2023-05-09T17:37:47.456Z,1.95
2023-05-09T17:40:14.868Z,2.10
2023-05-09T17:42:42.024Z,2.10
2023-05-09T17:45:11.227Z,2.20
2023-05-09T17:47:38.844Z,2.00
2023-05-09T17:50:07.135Z,2.17
2023-05-09T17:52:34.015Z,2.08
2023-05-09T17:55:01.749Z,2.17
2023-05-09T17:57:28.197Z,2.03
2023-05-09T17:59:54.672Z,2.00
2023-05-09T18:02:23.989Z,1.98
2023-05-09T18:04:51.178Z,2.17
2023-05-09T18:07:17.712Z,1.83
2023-05-09T18:09:44.162Z,1.80
2023-05-09T18:12:10.707Z,1.77
2023-05-09T18:14:38.944Z,1.90
2023-05-09T18:17:05.741Z,1.75
2023-05-09T18:19:32.170Z,1.85
2023-05-09T18:21:59.098Z,1.92
2023-05-09T18:24:25.541Z,1.75
2023-05-09T18:26:52.452Z,1.90
2023-05-09T18:29:19.533Z,2.00
2023-05-09T18:31:46.108Z,1.88
2023-05-09T18:34:12.981Z,2.15
2023-05-09T18:36:40.751Z,1.83
2023-05-09T18:39:08.924Z,1.90
2023-05-09T18:41:36.040Z,1.70
2023-05-09T18:44:02.514Z,2.00
2023-05-09T18:46:31.471Z,1.98
2023-05-09T18:48:57.979Z,2.33
2023-05-09T18:51:25.200Z,2.00
2023-05-09T18:53:52.321Z,2.10
2023-05-09T18:56:22.288Z,2.20
2023-05-09T18:58:52.083Z,1.98
2023-05-09T19:01:19.034Z,2.00
2023-05-09T19:03:46.412Z,2.10
2023-05-09T19:06:14.068Z,2.15
2023-05-09T19:08:42.438Z,1.50
2023-05-09T19:11:10.014Z,2.35
2023-05-09T19:13:38.478Z,3.00
2023-05-09T19:16:05.853Z,2.20
2023-05-09T19:18:32.993Z,1.95
2023-05-09T19:20:59.646Z,2.22
2023-05-09T19:23:26.952Z,1.95
2023-05-09T19:25:54.149Z,2.22
2023-05-09T19:28:21.415Z,2.00
2023-05-09T19:30:49.031Z,1.90
2023-05-09T19:33:16.056Z,1.92
2023-05-09T19:35:43.415Z,2.60
2023-05-09T19:38:11.950Z,2.17
2023-05-09T19:40:39.299Z,2.15
2023-05-09T19:43:05.804Z,2.00
2023-05-09T19:45:32.308Z,2.05
2023-05-09T19:47:59.097Z,2.42
2023-05-09T19:50:25.770Z,1.95
2023-05-09T19:52:52.205Z,2.97
2023-05-09T19:55:18.681Z,2.17
2023-05-09T19:57:45.163Z,1.88
2023-05-09T20:00:12.639Z,2.05
2023-05-09T20:02:39.372Z,1.98
2023-05-09T20:05:06.439Z,2.13
2023-05-09T20:07:33.163Z,2.22
2023-05-09T20:09:59.602Z,2.13
2023-05-09T20:12:27.876Z,2.38
2023-05-09T20:14:56.009Z,2.15
2023-05-09T20:17:22.599Z,2.28
2023-05-09T20:19:49.110Z,1.80
2023-05-09T20:22:15.609Z,2.20
2023-05-09T20:24:42.081Z,1.83
2023-05-09T20:27:08.677Z,2.10
2023-05-09T20:29:35.322Z,2.10
2023-05-09T20:32:01.814Z,2.03
2023-05-09T20:34:28.673Z,2.22
2023-05-09T20:36:55.183Z,2.10
2023-05-09T20:39:21.685Z,2.08
2023-05-09T20:41:49.213Z,1.85
2023-05-09T20:44:17.751Z,2.47
2023-05-09T20:46:45.125Z,2.10
2023-05-09T20:49:11.713Z,2.13
2023-05-09T20:51:38.628Z,1.90
2023-05-09T20:54:05.201Z,1.98
2023-05-09T20:56:33.230Z,2.47
2023-05-09T20:59:03.882Z,2.10
2023-05-09T21:01:37.065Z,2.15
2023-05-09T21:04:08.307Z,2.30
2023-05-09T21:06:36.296Z,2.20
2023-05-09T21:09:03.477Z,2.15
2023-05-09T21:11:29.944Z,1.98
2023-05-09T21:13:56.668Z,1.60
2023-05-09T21:16:23.192Z,2.00
2023-05-09T21:18:49.844Z,1.85
2023-05-09T21:21:16.399Z,1.90
2023-05-09T21:23:42.811Z,1.88
2023-05-09T21:26:09.233Z,2.00
2023-05-09T21:28:35.700Z,2.13
2023-05-09T21:31:02.314Z,2.00
2023-05-09T21:33:29.717Z,2.08
2023-05-09T21:35:56.206Z,2.00
2023-05-09T21:38:22.880Z,2.08
2023-05-09T21:40:51.211Z,1.90
2023-05-09T21:43:18.279Z,1.75
2023-05-09T21:45:45.366Z,2.10
2023-05-09T21:48:11.875Z,1.95
2023-05-09T21:50:38.395Z,1.95
2023-05-09T21:53:04.970Z,1.98
2023-05-09T21:55:31.538Z,1.77
2023-05-09T21:57:58.060Z,2.20
2023-05-09T22:00:24.815Z,1.70
2023-05-09T22:02:51.506Z,1.95
2023-05-09T22:05:18.055Z,2.10
2023-05-09T22:07:44.546Z,1.90
2023-05-09T22:10:11.332Z,1.85
2023-05-09T22:12:37.854Z,1.95
2023-05-09T22:15:04.920Z,1.70
2023-05-09T22:17:31.709Z,1.88
2023-05-09T22:19:58.183Z,1.60
2023-05-09T22:22:24.703Z,1.83
2023-05-09T22:24:51.132Z,2.10
2023-05-09T22:27:17.549Z,1.85
2023-05-09T22:29:43.969Z,2.10
2023-05-09T22:32:10.523Z,2.00
2023-05-09T22:34:37.207Z,1.80
2023-05-09T22:37:03.833Z,1.75
2023-05-09T22:39:30.913Z,2.15
2023-05-09T22:41:57.380Z,1.80
2023-05-09T22:44:23.860Z,2.03
2023-05-09T22:46:50.381Z,1.60
2023-05-09T22:49:16.826Z,2.22
2023-05-09T22:51:43.286Z,1.77
2023-05-09T22:54:10.038Z,1.60
2023-05-09T22:56:36.905Z,1.50
2023-05-09T22:59:03.359Z,1.70
2023-05-09T23:01:29.872Z,2.10
2023-05-09T23:03:56.325Z,1.88
2023-05-09T23:06:23.169Z,1.92
2023-05-09T23:08:49.801Z,1.42
2023-05-09T23:11:16.208Z,1.58
2023-05-09T23:13:43.013Z,1.98
2023-05-09T23:16:09.840Z,1.88
2023-05-09T23:18:36.746Z,1.65
2023-05-09T23:21:04.905Z,1.80
2023-05-09T23:23:31.504Z,1.60
2023-05-09T23:25:58.299Z,1.58
2023-05-09T23:28:25.418Z,1.80
2023-05-09T23:30:53.545Z,1.58
2023-05-09T23:33:20.566Z,1.80
2023-05-09T23:35:47.908Z,2.28
2023-05-09T23:38:14.451Z,1.70
2023-05-09T23:40:44.186Z,1.58
2023-05-09T23:43:10.628Z,1.35
2023-05-09T23:45:37.312Z,1.40
2023-05-09T23:48:04.760Z,1.50
2023-05-09T23:50:32.443Z,1.40
2023-05-09T23:52:58.980Z,1.70
2023-05-09T23:55:25.377Z,1.67
2023-05-09T23:57:51.991Z,1.38
